Time;durP1;ratioP1;P1;durP2;ratioP2;P2;SDS_P1;SDS_P2;PMS_P1;PMS_P2;Temp;Humidity;BMP_temperature;BMP_pressure;BME280_temperature;BME280_humidity;BME280_pressure;Samples;Min_cycle;Max_cycle;Signal;HPM_P1;HPM_P2
2023/10/12 00:04:53;;;;;;;41.13;17.83;;;;;;;;;;4994115;28;20034;-73
2023/10/12 00:07:25;;;;;;;41.17;17.85;;;;;;;;;;5044792;28;20032;-73
2023/10/12 00:10:04;;;;;;;47.97;18.87;;;;;;;;;;5037503;28;20468;-73
2023/10/12 00:12:29;;;;;;;24.73;10.20;;;;;;;;;;5055192;28;20518;-72
2023/10/12 00:14:55;;;;;;;28.53;10.17;;;;;;;;;;5055603;28;20021;-73
2023/10/12 00:17:23;;;;;;;22.90;8.70;;;;;;;;;;5055173;28;20380;-73
2023/10/12 00:19:51;;;;;;;23.30;8.10;;;;;;;;;;5055280;28;20017;-73
2023/10/12 00:22:16;;;;;;;23.42;7.43;;;;;;;;;;5037255;28;20067;-73
2023/10/12 00:24:41;;;;;;;23.75;7.93;;;;;;;;;;5037235;28;20009;-72
2023/10/12 00:27:09;;;;;;;26.73;7.03;;;;;;;;;;5055233;28;20017;-71
2023/10/12 00:29:34;;;;;;;27.17;7.22;;;;;;;;;;5055018;28;20270;-71
2023/10/12 00:32:02;;;;;;;27.23;7.57;;;;;;;;;;5055009;28;20017;-72
2023/10/12 00:34:27;;;;;;;26.95;7.57;;;;;;;;;;5054966;28;20013;-72
2023/10/12 00:36:53;;;;;;;28.92;7.30;;;;;;;;;;5054866;28;20044;-71
2023/10/12 00:39:20;;;;;;;17.10;6.85;;;;;;;;;;5054855;28;20029;-71
2023/10/12 00:41:45;;;;;;;24.90;6.93;;;;;;;;;;5054829;28;20009;-72
2023/10/12 00:44:19;;;;;;;24.20;6.82;;;;;;;;;;5054962;28;20475;-71
2023/10/12 00:49:22;;;;;;;24.88;6.80;;;;;;;;;;5054935;28;20029;-71
2023/10/12 00:51:51;;;;;;;26.42;7.10;;;;;;;;;;5054594;28;20107;-71
2023/10/12 00:57:05;;;;;;;20.55;6.95;;;;;;;;;;5054760;28;20086;-71
2023/10/12 00:59:34;;;;;;;18.60;6.20;;;;;;;;;;5036531;28;20087;-72
2023/10/12 01:02:00;;;;;;;22.50;6.47;;;;;;;;;;5054500;28;20044;-71
2023/10/12 01:04:26;;;;;;;28.52;7.13;;;;;;;;;;5054471;28;20028;-71
2023/10/12 01:06:51;;;;;;;20.77;6.15;;;;;;;;;;5054532;28;20021;-71
2023/10/12 01:09:19;;;;;;;23.30;5.10;;;;;;;;;;5054205;28;20021;-71
2023/10/12 01:11:58;;;;;;;12.27;3.53;;;;;;;;;;5053964;28;20064;-72
2023/10/12 01:14:26;;;;;;;5.22;2.00;;;;;;;;;;5054356;28;20044;-71
2023/10/12 01:16:58;;;;;;;2.80;1.65;;;;;;;;;;5036186;28;20111;-71
2023/10/12 01:19:23;;;;;;;3.42;1.10;;;;;;;;;;5053615;28;20013;-71
2023/10/12 01:21:49;;;;;;;4.55;0.95;;;;;;;;;;5053997;28;20535;-71
2023/10/12 01:24:15;;;;;;;2.53;0.80;;;;;;;;;;5054200;28;20013;-71
2023/10/12 01:26:49;;;;;;;2.90;0.70;;;;;;;;;;5054100;28;20013;-71
2023/10/12 01:29:22;;;;;;;4.45;0.70;;;;;;;;;;5054151;28;20032;-71
2023/10/12 01:32:10;;;;;;;2.88;0.73;;;;;;;;;;5035981;28;20391;-72
2023/10/12 01:34:39;;;;;;;2.45;0.70;;;;;;;;;;5053663;28;20063;-71
2023/10/12 01:37:26;;;;;;;1.45;0.60;;;;;;;;;;5035944;28;20020;-71
2023/10/12 01:39:59;;;;;;;3.45;0.82;;;;;;;;;;5053289;28;20108;-71
2023/10/12 01:45:18;;;;;;;3.38;0.80;;;;;;;;;;5053872;28;20569;-71
2023/10/12 01:47:44;;;;;;;2.70;0.73;;;;;;;;;;5053715;28;20032;-71
2023/10/12 01:50:10;;;;;;;3.08;0.80;;;;;;;;;;5053705;28;20024;-71
2023/10/12 01:52:35;;;;;;;3.60;0.93;;;;;;;;;;5053391;28;20453;-71
2023/10/12 01:55:00;;;;;;;3.42;0.85;;;;;;;;;;5053510;28;20043;-71
2023/10/12 01:57:35;;;;;;;1.65;0.68;;;;;;;;;;5053778;28;20379;-71
2023/10/12 02:00:00;;;;;;;4.30;0.70;;;;;;;;;;5035401;28;20075;-71
2023/10/12 02:02:26;;;;;;;5.45;1.10;;;;;;;;;;5035606;28;20028;-71
2023/10/12 02:04:52;;;;;;;4.28;0.98;;;;;;;;;;5035927;28;20095;-71
2023/10/12 02:07:17;;;;;;;2.58;0.80;;;;;;;;;;5053663;28;20013;-71
2023/10/12 02:09:44;;;;;;;2.10;1.00;;;;;;;;;;5053893;28;20016;-71
2023/10/12 02:12:12;;;;;;;4.93;1.00;;;;;;;;;;5053278;28;20045;-71
2023/10/12 02:14:41;;;;;;;1.63;0.65;;;;;;;;;;5053355;28;20071;-72
2023/10/12 02:17:07;;;;;;;3.20;0.93;;;;;;;;;;5035304;28;20037;-71
2023/10/12 02:19:41;;;;;;;2.47;1.00;;;;;;;;;;5035456;28;20104;-72
2023/10/12 02:22:17;;;;;;;3.15;0.82;;;;;;;;;;5053283;28;20075;-72
2023/10/12 02:24:43;;;;;;;2.85;0.70;;;;;;;;;;5053352;28;20368;-72
2023/10/12 02:27:12;;;;;;;3.20;1.10;;;;;;;;;;5035239;28;20025;-71
2023/10/12 02:29:38;;;;;;;5.00;1.00;;;;;;;;;;5037431;28;20267;-71
2023/10/12 02:32:16;;;;;;;2.67;1.00;;;;;;;;;;5057136;28;20479;-71
2023/10/12 02:34:41;;;;;;;3.20;0.82;;;;;;;;;;5039436;28;20025;-71
2023/10/12 02:39:37;;;;;;;2.78;1.10;;;;;;;;;;5057105;28;20025;-71
2023/10/12 02:45:15;;;;;;;2.67;0.85;;;;;;;;;;5057215;28;20384;-71
2023/10/12 02:47:31;;;;;;;5.18;0.70;;;;;;;;;;5056922;28;20021;-70
2023/10/12 02:50:00;;;;;;;3.30;0.80;;;;;;;;;;5056843;28;20081;-71
2023/10/12 02:52:32;;;;;;;2.67;1.00;;;;;;;;;;5038904;28;20159;-71
2023/10/12 02:54:58;;;;;;;2.17;0.90;;;;;;;;;;5056968;28;20064;-71
2023/10/12 02:57:28;;;;;;;2.58;0.85;;;;;;;;;;5056677;28;20025;-72
2023/10/12 02:59:57;;;;;;;3.97;0.85;;;;;;;;;;5056691;28;20090;-71
2023/10/12 03:02:24;;;;;;;4.05;0.77;;;;;;;;;;5056694;28;20021;-71
2023/10/12 03:04:49;;;;;;;1.05;0.60;;;;;;;;;;5056712;28;20025;-71
2023/10/12 03:07:22;;;;;;;1.52;0.70;;;;;;;;;;5056794;28;20023;-72
2023/10/12 03:09:55;;;;;;;3.17;1.00;;;;;;;;;;5056578;28;20028;-72
2023/10/12 03:12:21;;;;;;;2.33;0.65;;;;;;;;;;5038580;28;20446;-72
2023/10/12 03:14:50;;;;;;;2.42;0.70;;;;;;;;;;5056678;28;20021;-72
2023/10/12 03:17:16;;;;;;;3.15;0.80;;;;;;;;;;5038680;28;20421;-72
2023/10/12 03:19:47;;;;;;;6.35;0.50;;;;;;;;;;5056458;28;20016;-72
2023/10/12 03:22:25;;;;;;;1.38;0.40;;;;;;;;;;5056421;28;20024;-72
2023/10/12 03:24:51;;;;;;;3.72;0.70;;;;;;;;;;5038441;28;20045;-71
2023/10/12 03:27:17;;;;;;;2.13;0.65;;;;;;;;;;5056430;28;20032;-71
2023/10/12 03:29:54;;;;;;;1.48;0.57;;;;;;;;;;5056369;28;20013;-70
2023/10/12 03:32:23;;;;;;;3.80;0.60;;;;;;;;;;5038364;28;20021;-71
2023/10/12 03:37:18;;;;;;;5.03;1.00;;;;;;;;;;5056263;28;20079;-71
2023/10/12 03:42:54;;;;;;;1.98;0.55;;;;;;;;;;5055987;28;20021;-72
2023/10/12 03:45:13;;;;;;;2.45;0.75;;;;;;;;;;5045380;28;20135;-71
2023/10/12 03:47:55;;;;;;;2.25;0.45;;;;;;;;;;5056383;28;20009;-71
2023/10/12 03:50:20;;;;;;;1.15;0.60;;;;;;;;;;5038708;28;20085;-71
2023/10/12 03:52:54;;;;;;;2.75;0.88;;;;;;;;;;5056113;28;20385;-71
2023/10/12 03:55:28;;;;;;;2.72;0.90;;;;;;;;;;5056175;28;20051;-72
2023/10/12 03:58:15;;;;;;;3.10;1.00;;;;;;;;;;5056770;28;20099;-72
2023/10/12 04:01:05;;;;;;;3.05;0.80;;;;;;;;;;5055933;28;20040;-72
2023/10/12 04:03:35;;;;;;;5.22;1.00;;;;;;;;;;5043743;28;20024;-72
2023/10/12 04:06:09;;;;;;;5.53;1.35;;;;;;;;;;5072519;28;20005;-71
2023/10/12 04:16:27;;;;;;;2.63;0.80;;;;;;;;;;5075778;28;20041;-70
2023/10/12 04:21:23;;;;;;;2.67;0.88;;;;;;;;;;5076598;28;20047;-71
2023/10/12 04:23:49;;;;;;;2.30;1.10;;;;;;;;;;5076312;28;20395;-72
2023/10/12 04:28:49;;;;;;;3.15;0.98;;;;;;;;;;5077763;28;20029;-72
2023/10/12 04:31:20;;;;;;;4.25;1.00;;;;;;;;;;5078457;28;20005;-73
2023/10/12 04:33:54;;;;;;;4.15;1.17;;;;;;;;;;5078823;28;20020;-72
2023/10/12 04:36:33;;;;;;;5.70;1.50;;;;;;;;;;5078090;28;20005;-72
2023/10/12 04:39:11;;;;;;;3.65;1.17;;;;;;;;;;5078370;28;20009;-72
2023/10/12 04:42:04;;;;;;;4.95;1.30;;;;;;;;;;5078887;28;20009;-72
2023/10/12 04:46:51;;;;;;;5.40;1.60;;;;;;;;;;5060751;28;20036;-72
2023/10/12 04:51:41;;;;;;;10.45;2.40;;;;;;;;;;5058203;28;20337;-72
2023/10/12 04:54:25;;;;;;;6.43;1.75;;;;;;;;;;5056917;28;20028;-71
2023/10/12 04:57:10;;;;;;;6.47;1.60;;;;;;;;;;5057716;28;20013;-72
2023/10/12 05:07:27;;;;;;;7.93;1.67;;;;;;;;;;5054999;28;20040;-71
2023/10/12 05:09:52;;;;;;;6.05;1.60;;;;;;;;;;5054269;28;20021;-71
2023/10/12 05:12:17;;;;;;;7.63;1.67;;;;;;;;;;5054656;28;20049;-71
2023/10/12 05:14:43;;;;;;;7.97;1.67;;;;;;;;;;5054750;28;20021;-72
2023/10/12 05:17:08;;;;;;;12.63;2.00;;;;;;;;;;5054309;28;20025;-71
2023/10/12 05:19:33;;;;;;;8.13;1.60;;;;;;;;;;5054624;28;20020;-71
2023/10/12 05:21:59;;;;;;;14.23;1.80;;;;;;;;;;5054420;28;20718;-72
2023/10/12 05:24:24;;;;;;;5.97;1.90;;;;;;;;;;5054303;28;20021;-72
2023/10/12 05:26:57;;;;;;;8.07;1.55;;;;;;;;;;5054449;28;20330;-72
2023/10/12 05:31:58;;;;;;;7.33;2.00;;;;;;;;;;5054075;28;20052;-72
2023/10/12 05:37:09;;;;;;;7.32;1.50;;;;;;;;;;5054258;28;20039;-72
2023/10/12 05:39:43;;;;;;;9.85;2.50;;;;;;;;;;5054342;28;20376;-72
2023/10/12 05:42:09;;;;;;;13.65;1.88;;;;;;;;;;5036307;28;20042;-72
2023/10/12 05:44:34;;;;;;;11.90;2.17;;;;;;;;;;5054103;28;20095;-72
2023/10/12 05:47:00;;;;;;;10.60;2.07;;;;;;;;;;5054127;28;20264;-72
2023/10/12 05:49:25;;;;;;;11.55;1.80;;;;;;;;;;5053675;28;20020;-72
2023/10/12 05:51:51;;;;;;;9.70;2.15;;;;;;;;;;5036082;28;20440;-72
2023/10/12 05:54:20;;;;;;;11.95;2.13;;;;;;;;;;5053862;28;20039;-72
2023/10/12 05:56:45;;;;;;;8.90;2.05;;;;;;;;;;5035973;28;20021;-71
2023/10/12 05:59:12;;;;;;;9.32;2.20;;;;;;;;;;5053513;28;20021;-71
2023/10/12 06:01:38;;;;;;;9.65;2.20;;;;;;;;;;5053730;28;20092;-71
2023/10/12 06:04:05;;;;;;;13.38;2.25;;;;;;;;;;5038340;28;20064;-72
2023/10/12 06:06:34;;;;;;;10.25;2.60;;;;;;;;;;5060471;28;20092;-72
2023/10/12 06:08:59;;;;;;;10.73;2.10;;;;;;;;;;5060274;28;20024;-72
2023/10/12 06:11:26;;;;;;;9.40;2.60;;;;;;;;;;5060138;28;20126;-72
2023/10/12 06:13:52;;;;;;;6.15;2.13;;;;;;;;;;5042388;28;20310;-72
2023/10/12 06:16:17;;;;;;;6.47;2.10;;;;;;;;;;5042242;28;20044;-72
2023/10/12 06:18:46;;;;;;;11.80;2.22;;;;;;;;;;5042294;28;20028;-72
2023/10/12 06:21:17;;;;;;;8.20;2.30;;;;;;;;;;5042079;28;20464;-73
2023/10/12 06:23:44;;;;;;;9.98;2.38;;;;;;;;;;5059967;28;20013;-72
2023/10/12 06:26:17;;;;;;;8.80;2.25;;;;;;;;;;5059843;28;20479;-72
2023/10/12 06:28:42;;;;;;;9.80;2.20;;;;;;;;;;5060284;28;20402;-72
2023/10/12 06:31:08;;;;;;;12.98;2.40;;;;;;;;;;5042191;28;20028;-72
2023/10/12 06:33:33;;;;;;;8.38;1.80;;;;;;;;;;5060023;28;20403;-71
2023/10/12 06:35:58;;;;;;;9.88;1.77;;;;;;;;;;5041828;28;20021;-71
2023/10/12 06:38:38;;;;;;;8.18;1.92;;;;;;;;;;5059893;28;20020;-71
2023/10/12 06:41:28;;;;;;;9.18;2.30;;;;;;;;;;5060244;28;20021;-72
2023/10/12 06:46:15;;;;;;;5.57;2.13;;;;;;;;;;5060276;28;20067;-72
2023/10/12 06:48:44;;;;;;;12.43;2.30;;;;;;;;;;5059693;28;20023;-73
2023/10/12 06:51:11;;;;;;;8.10;2.30;;;;;;;;;;5060050;28;20101;-72
2023/10/12 06:53:37;;;;;;;7.18;2.08;;;;;;;;;;5042036;28;20025;-72
2023/10/12 06:58:44;;;;;;;9.45;1.77;;;;;;;;;;5060250;28;20078;-72
2023/10/12 07:01:27;;;;;;;8.13;1.98;;;;;;;;;;5059961;28;20017;-72
2023/10/12 07:03:53;;;;;;;10.60;1.98;;;;;;;;;;5059625;28;20380;-70
2023/10/12 07:06:18;;;;;;;8.60;2.38;;;;;;;;;;5041860;28;20036;-71
2023/10/12 07:08:46;;;;;;;9.85;1.67;;;;;;;;;;5059742;28;20035;-73
2023/10/12 07:11:14;;;;;;;7.63;2.10;;;;;;;;;;5059639;28;20131;-72
2023/10/12 07:13:41;;;;;;;5.03;1.67;;;;;;;;;;5060063;28;20036;-72
2023/10/12 07:16:07;;;;;;;9.48;1.80;;;;;;;;;;5056717;28;20392;-71
2023/10/12 07:18:34;;;;;;;7.78;1.80;;;;;;;;;;5056355;28;20017;-72
2023/10/12 07:20:59;;;;;;;8.15;2.13;;;;;;;;;;5038594;28;20121;-72
2023/10/12 07:23:35;;;;;;;9.25;1.77;;;;;;;;;;5038221;28;20041;-71
2023/10/12 07:26:06;;;;;;;5.53;1.80;;;;;;;;;;5056104;28;20082;-72
2023/10/12 07:28:35;;;;;;;5.15;1.73;;;;;;;;;;5056262;28;20027;-71
2023/10/12 07:36:52;;;;;;;7.05;1.92;;;;;;;;;;5056386;28;20024;-72
2023/10/12 07:39:20;;;;;;;6.32;2.05;;;;;;;;;;5055106;28;20037;-72
2023/10/12 07:42:02;;;;;;;8.18;1.70;;;;;;;;;;5056134;28;20447;-72
2023/10/12 07:44:28;;;;;;;5.93;1.85;;;;;;;;;;5055932;28;20009;-72
2023/10/12 07:46:57;;;;;;;7.15;2.17;;;;;;;;;;5055800;28;20024;-72
2023/10/12 07:49:29;;;;;;;8.20;1.65;;;;;;;;;;5055992;28;20345;-72
2023/10/12 07:54:47;;;;;;;5.80;1.73;;;;;;;;;;5037735;28;20082;-72
2023/10/12 07:57:13;;;;;;;8.43;1.90;;;;;;;;;;5055821;28;20021;-72
2023/10/12 07:59:38;;;;;;;8.57;1.80;;;;;;;;;;5055651;28;20021;-72
2023/10/12 08:02:08;;;;;;;8.20;1.95;;;;;;;;;;5037705;28;20052;-71
2023/10/12 08:04:33;;;;;;;9.77;2.20;;;;;;;;;;5056070;28;20009;-72
2023/10/12 08:07:06;;;;;;;11.32;2.15;;;;;;;;;;5055799;28;20020;-72
2023/10/12 08:11:56;;;;;;;9.00;2.38;;;;;;;;;;5055463;28;19971;-74
2023/10/12 08:17:25;;;;;;;8.27;2.10;;;;;;;;;;5055539;28;20029;-72
2023/10/12 08:19:39;;;;;;;7.57;2.50;;;;;;;;;;5055200;28;20036;-71
2023/10/12 08:22:13;;;;;;;8.38;2.70;;;;;;;;;;5055213;28;20093;-71
2023/10/12 08:24:39;;;;;;;6.20;2.15;;;;;;;;;;5055236;28;20330;-72
2023/10/12 08:27:06;;;;;;;7.68;2.45;;;;;;;;;;5055361;28;20134;-72
2023/10/12 08:35:10;;;;;;;8.80;2.20;;;;;;;;;;5055337;28;20044;-72
2023/10/12 08:37:36;;;;;;;5.28;2.20;;;;;;;;;;5054944;28;20036;-72
2023/10/12 08:43:06;;;;;;;8.15;2.13;;;;;;;;;;5010624;28;20071;-71
2023/10/12 08:45:32;;;;;;;6.88;2.70;;;;;;;;;;5054781;28;20016;-72
2023/10/12 08:48:02;;;;;;;5.35;2.58;;;;;;;;;;5055088;28;20013;-72
2023/10/12 08:53:13;;;;;;;5.97;2.70;;;;;;;;;;5055042;28;20027;-72
2023/10/12 08:55:38;;;;;;;5.85;2.60;;;;;;;;;;5054761;28;20028;-73
2023/10/12 08:58:14;;;;;;;9.70;3.35;;;;;;;;;;5055087;28;20021;-73
2023/10/12 09:00:44;;;;;;;6.05;3.05;;;;;;;;;;5054418;28;20017;-73
2023/10/12 09:06:00;;;;;;;7.30;3.50;;;;;;;;;;5054782;28;20032;-73
2023/10/12 09:11:13;;;;;;;5.50;3.30;;;;;;;;;;5054435;28;20100;-73
2023/10/12 09:13:45;;;;;;;4.93;2.85;;;;;;;;;;5036644;28;20361;-73
2023/10/12 09:16:11;;;;;;;6.13;3.20;;;;;;;;;;5054254;28;20491;-72
2023/10/12 09:19:11;;;;;;;7.75;3.40;;;;;;;;;;5054747;28;20053;-73
2023/10/12 09:21:57;;;;;;;5.82;2.85;;;;;;;;;;5051826;28;20039;-73
2023/10/12 09:24:28;;;;;;;6.40;3.00;;;;;;;;;;5053235;28;20021;-72
2023/10/12 09:26:59;;;;;;;4.78;2.50;;;;;;;;;;5053596;28;20024;-72
2023/10/12 09:29:27;;;;;;;2.97;2.30;;;;;;;;;;5054049;28;20075;-72
2023/10/12 09:34:46;;;;;;;2.72;2.30;;;;;;;;;;5053772;28;20035;-72
2023/10/12 09:37:17;;;;;;;4.25;2.50;;;;;;;;;;5053903;28;20008;-72
2023/10/12 09:39:45;;;;;;;5.05;2.53;;;;;;;;;;5053552;28;20024;-72
2023/10/12 09:42:14;;;;;;;4.07;2.50;;;;;;;;;;5035080;28;20028;-72
2023/10/12 09:44:40;;;;;;;3.88;2.50;;;;;;;;;;5053804;28;20047;-72
2023/10/12 09:47:15;;;;;;;4.15;2.40;;;;;;;;;;5054270;28;20013;-72
2023/10/12 09:49:44;;;;;;;4.78;2.72;;;;;;;;;;5053759;28;20029;-72
2023/10/12 09:52:13;;;;;;;4.57;2.85;;;;;;;;;;5035891;28;20029;-72
2023/10/12 09:54:57;;;;;;;7.25;2.60;;;;;;;;;;5035697;28;20042;-72
2023/10/12 09:57:25;;;;;;;3.53;2.40;;;;;;;;;;5053937;28;20492;-71
2023/10/12 09:59:52;;;;;;;3.35;2.47;;;;;;;;;;5035752;28;20025;-72
2023/10/12 10:02:28;;;;;;;4.82;2.67;;;;;;;;;;5053870;28;20017;-71
2023/10/12 10:07:36;;;;;;;4.75;2.70;;;;;;;;;;5053876;28;20028;-72
2023/10/12 10:10:05;;;;;;;4.65;2.83;;;;;;;;;;5035654;28;20036;-71
2023/10/12 10:12:35;;;;;;;4.50;2.95;;;;;;;;;;5032225;28;20084;-71
2023/10/12 10:15:10;;;;;;;4.25;2.88;;;;;;;;;;5033809;28;20021;-71
2023/10/12 10:17:47;;;;;;;7.20;3.40;;;;;;;;;;5033664;28;20100;-72
2023/10/12 10:22:56;;;;;;;4.07;2.75;;;;;;;;;;5033942;28;20056;-72
2023/10/12 10:25:23;;;;;;;5.03;2.92;;;;;;;;;;5032317;28;20033;-71
2023/10/12 10:27:49;;;;;;;4.47;2.90;;;;;;;;;;5033462;28;20024;-72
2023/10/12 10:30:36;;;;;;;3.50;2.40;;;;;;;;;;5033536;28;20018;-72
2023/10/12 10:33:07;;;;;;;4.35;2.55;;;;;;;;;;5033392;28;20028;-72
2023/10/12 10:35:50;;;;;;;6.22;2.47;;;;;;;;;;5032240;28;20461;-72
2023/10/12 10:38:17;;;;;;;2.92;2.33;;;;;;;;;;5033320;28;20465;-71
2023/10/12 10:40:49;;;;;;;4.45;2.60;;;;;;;;;;5033431;28;20026;-71
2023/10/12 10:43:17;;;;;;;3.55;2.60;;;;;;;;;;5032550;28;20044;-68
2023/10/12 10:45:56;;;;;;;3.67;2.83;;;;;;;;;;5033647;28;20029;-70
2023/10/12 10:48:21;;;;;;;6.32;2.90;;;;;;;;;;5032151;28;20045;-71
2023/10/12 10:50:50;;;;;;;4.85;3.03;;;;;;;;;;5032571;28;20455;-69
2023/10/12 10:53:15;;;;;;;5.85;2.97;;;;;;;;;;5036865;28;20024;-70
2023/10/12 10:55:41;;;;;;;3.97;3.15;;;;;;;;;;5036955;28;20021;-70
2023/10/12 10:58:07;;;;;;;4.28;2.92;;;;;;;;;;5037595;28;20029;-70
2023/10/12 11:00:37;;;;;;;3.65;2.72;;;;;;;;;;5039344;28;20052;-69
2023/10/12 11:03:05;;;;;;;4.93;2.85;;;;;;;;;;5038090;28;20445;-70
2023/10/12 11:05:30;;;;;;;4.43;3.08;;;;;;;;;;5037444;28;20342;-69
2023/10/12 11:08:12;;;;;;;4.07;2.90;;;;;;;;;;5036789;28;20128;-70
2023/10/12 11:11:14;;;;;;;5.85;2.92;;;;;;;;;;5037519;28;20029;-70
2023/10/12 11:13:25;;;;;;;3.83;2.70;;;;;;;;;;5056558;28;20507;-70
2023/10/12 11:15:52;;;;;;;4.90;2.95;;;;;;;;;;5057090;28;20123;-71
2023/10/12 11:18:17;;;;;;;4.85;3.08;;;;;;;;;;5038642;28;20491;-70
2023/10/12 11:20:49;;;;;;;5.80;2.90;;;;;;;;;;5056677;28;20021;-71
2023/10/12 11:23:16;;;;;;;4.15;2.88;;;;;;;;;;5039617;28;20040;-71
2023/10/12 11:25:41;;;;;;;4.03;2.90;;;;;;;;;;5039054;28;20130;-71
2023/10/12 11:28:20;;;;;;;5.30;3.10;;;;;;;;;;5056835;28;20099;-71
2023/10/12 11:30:45;;;;;;;5.65;2.90;;;;;;;;;;5038777;28;20047;-71
2023/10/12 11:33:11;;;;;;;5.38;2.92;;;;;;;;;;5056781;28;20016;-69
2023/10/12 11:35:40;;;;;;;4.53;2.90;;;;;;;;;;5056411;28;20094;-70
2023/10/12 11:38:13;;;;;;;4.20;3.08;;;;;;;;;;5056368;28;20047;-70
2023/10/12 11:40:40;;;;;;;4.10;3.22;;;;;;;;;;5038602;28;20017;-70
2023/10/12 11:43:05;;;;;;;6.10;3.67;;;;;;;;;;5057952;28;20066;-71
2023/10/12 11:45:33;;;;;;;6.97;3.50;;;;;;;;;;5055494;28;20025;-70
2023/10/12 11:48:00;;;;;;;5.35;3.45;;;;;;;;;;5056310;28;20258;-69
2023/10/12 11:50:32;;;;;;;4.15;3.40;;;;;;;;;;5038095;28;20348;-69
2023/10/12 11:53:09;;;;;;;4.03;3.40;;;;;;;;;;5038401;28;20028;-69
2023/10/12 11:55:40;;;;;;;5.03;3.50;;;;;;;;;;5056093;28;20075;-70
2023/10/12 11:58:07;;;;;;;7.05;4.10;;;;;;;;;;5056065;28;20021;-71
2023/10/12 12:00:39;;;;;;;10.23;3.92;;;;;;;;;;5058112;28;20013;-70
2023/10/12 12:03:08;;;;;;;6.32;3.78;;;;;;;;;;5056946;28;20334;-69
2023/10/12 12:05:36;;;;;;;7.68;3.92;;;;;;;;;;5055766;28;20071;-70
2023/10/12 12:08:06;;;;;;;5.72;3.83;;;;;;;;;;5037929;28;20020;-71
2023/10/12 12:10:53;;;;;;;5.28;3.67;;;;;;;;;;5055520;28;20078;-70
2023/10/12 12:13:23;;;;;;;4.47;3.47;;;;;;;;;;5017133;28;20120;-70
2023/10/12 12:15:48;;;;;;;4.97;3.40;;;;;;;;;;5016979;28;20049;-69
2023/10/12 12:18:20;;;;;;;4.45;3.28;;;;;;;;;;5021811;28;20018;-70
2023/10/12 12:20:47;;;;;;;5.22;3.55;;;;;;;;;;5017133;28;20021;-70
2023/10/12 12:23:12;;;;;;;5.82;3.80;;;;;;;;;;5015674;28;20026;-69
2023/10/12 12:25:39;;;;;;;7.35;3.60;;;;;;;;;;5015504;28;20017;-69
2023/10/12 12:28:07;;;;;;;6.22;3.63;;;;;;;;;;5015328;28;20025;-70
2023/10/12 12:30:35;;;;;;;5.40;3.90;;;;;;;;;;5016049;28;20100;-69
2023/10/12 12:33:03;;;;;;;10.43;3.83;;;;;;;;;;5016417;28;20513;-70
2023/10/12 12:35:31;;;;;;;7.57;4.25;;;;;;;;;;5016255;28;20017;-71
2023/10/12 12:38:01;;;;;;;10.05;4.03;;;;;;;;;;5016977;28;20022;-69
2023/10/12 12:40:30;;;;;;;4.72;3.90;;;;;;;;;;5015137;28;20028;-69
2023/10/12 12:42:55;;;;;;;4.97;3.60;;;;;;;;;;5017096;28;20021;-70
2023/10/12 12:45:21;;;;;;;6.22;3.67;;;;;;;;;;5017730;28;20020;-70
2023/10/12 12:47:46;;;;;;;4.70;3.70;;;;;;;;;;5016538;28;20076;-69
2023/10/12 12:50:11;;;;;;;7.20;3.73;;;;;;;;;;5016297;28;20334;-69
2023/10/12 12:52:36;;;;;;;6.17;4.10;;;;;;;;;;5015785;28;20256;-70
2023/10/12 12:55:09;;;;;;;12.20;4.03;;;;;;;;;;5014811;28;20093;-70
2023/10/12 12:57:35;;;;;;;6.70;4.00;;;;;;;;;;5015660;28;20017;-71
2023/10/12 13:00:06;;;;;;;6.57;4.00;;;;;;;;;;5014822;28;20484;-70
2023/10/12 13:02:31;;;;;;;6.25;4.07;;;;;;;;;;5015547;28;20018;-70
2023/10/12 13:04:57;;;;;;;6.53;4.30;;;;;;;;;;5013672;28;20013;-70
2023/10/12 13:07:22;;;;;;;6.00;4.07;;;;;;;;;;5014509;28;20018;-70
2023/10/12 13:09:48;;;;;;;5.65;3.53;;;;;;;;;;5012992;28;20060;-71
2023/10/12 13:12:13;;;;;;;5.82;4.05;;;;;;;;;;5041999;28;20159;-70
2023/10/12 13:14:42;;;;;;;5.70;4.25;;;;;;;;;;5052966;28;20020;-69
2023/10/12 13:17:08;;;;;;;6.90;4.25;;;;;;;;;;5035869;28;20036;-69
2023/10/12 13:19:34;;;;;;;7.35;4.45;;;;;;;;;;5054172;28;20017;-70
2023/10/12 13:21:59;;;;;;;7.68;5.05;;;;;;;;;;5036191;28;20017;-69
2023/10/12 13:24:24;;;;;;;8.10;5.07;;;;;;;;;;5036163;28;20017;-70
2023/10/12 13:26:49;;;;;;;12.30;5.47;;;;;;;;;;5036592;28;20283;-70
2023/10/12 13:29:14;;;;;;;8.90;4.93;;;;;;;;;;5036681;28;20020;-68
2023/10/12 13:31:40;;;;;;;12.13;6.00;;;;;;;;;;5054091;28;20021;-70
2023/10/12 13:34:05;;;;;;;8.32;6.05;;;;;;;;;;5054063;28;20017;-70
2023/10/12 13:36:31;;;;;;;9.73;6.55;;;;;;;;;;5035955;28;20025;-69
2023/10/12 13:38:56;;;;;;;14.55;6.80;;;;;;;;;;5036229;28;20108;-69
2023/10/12 13:41:22;;;;;;;13.53;7.37;;;;;;;;;;5053731;28;20020;-70
2023/10/12 13:43:48;;;;;;;10.03;6.97;;;;;;;;;;5035747;28;20615;-70
2023/10/12 13:46:15;;;;;;;9.90;6.90;;;;;;;;;;5053816;28;20263;-69
2023/10/12 13:48:40;;;;;;;14.32;7.97;;;;;;;;;;5053909;28;20052;-68
2023/10/12 13:51:27;;;;;;;13.23;8.13;;;;;;;;;;5053795;28;20052;-68
2023/10/12 13:53:53;;;;;;;14.63;7.97;;;;;;;;;;5054639;28;20024;-70
2023/10/12 13:56:23;;;;;;;14.38;8.50;;;;;;;;;;5055609;28;20024;-68
2023/10/12 13:58:48;;;;;;;11.80;7.53;;;;;;;;;;5054271;28;20021;-68
2023/10/12 14:01:14;;;;;;;13.57;8.17;;;;;;;;;;5055957;28;20039;-70
2023/10/12 14:03:41;;;;;;;15.00;8.85;;;;;;;;;;5054009;28;20013;-69
2023/10/12 14:06:06;;;;;;;13.73;8.45;;;;;;;;;;5054027;28;20017;-69
2023/10/12 14:08:32;;;;;;;12.82;8.10;;;;;;;;;;5053565;28;20020;-69
2023/10/12 14:11:03;;;;;;;11.77;7.95;;;;;;;;;;5053266;28;20063;-69
2023/10/12 14:13:28;;;;;;;11.48;7.28;;;;;;;;;;5053637;28;20013;-69
2023/10/12 14:15:53;;;;;;;10.65;7.47;;;;;;;;;;5053578;28;20108;-70
2023/10/12 14:18:18;;;;;;;8.50;6.28;;;;;;;;;;5053545;28;20456;-69
2023/10/12 14:20:44;;;;;;;10.67;6.43;;;;;;;;;;5053554;28;20021;-69
2023/10/12 14:23:09;;;;;;;9.95;6.43;;;;;;;;;;5053523;28;20715;-69
2023/10/12 14:25:38;;;;;;;9.18;5.80;;;;;;;;;;5037210;28;20013;-69
2023/10/12 14:28:05;;;;;;;7.80;5.53;;;;;;;;;;5057814;28;20025;-69
2023/10/12 14:30:31;;;;;;;14.52;6.43;;;;;;;;;;5039732;28;20021;-69
2023/10/12 14:32:56;;;;;;;11.55;6.22;;;;;;;;;;5057535;28;20025;-69
2023/10/12 14:35:25;;;;;;;10.95;5.88;;;;;;;;;;5057736;28;20020;-70
2023/10/12 14:37:50;;;;;;;7.45;5.97;;;;;;;;;;5040012;28;20353;-69
2023/10/12 14:40:19;;;;;;;10.63;6.53;;;;;;;;;;5057443;28;20035;-69
2023/10/12 14:42:44;;;;;;;12.13;6.55;;;;;;;;;;5057322;28;20021;-69
2023/10/12 14:45:10;;;;;;;10.30;6.67;;;;;;;;;;5057415;28;20058;-69
2023/10/12 14:47:35;;;;;;;12.27;7.15;;;;;;;;;;5056934;28;20263;-69
2023/10/12 14:50:05;;;;;;;12.55;7.30;;;;;;;;;;5038663;28;20017;-68
2023/10/12 14:52:38;;;;;;;12.55;7.53;;;;;;;;;;5056891;28;20044;-68
2023/10/12 14:55:05;;;;;;;13.50;7.93;;;;;;;;;;5039039;28;20035;-69
2023/10/12 14:57:30;;;;;;;11.65;8.05;;;;;;;;;;5039004;28;20017;-69
2023/10/12 14:59:55;;;;;;;13.40;8.30;;;;;;;;;;5056718;28;20024;-69
2023/10/12 15:02:20;;;;;;;12.05;8.38;;;;;;;;;;5056705;28;20270;-69
2023/10/12 15:04:46;;;;;;;15.63;8.68;;;;;;;;;;5038610;28;20017;-69
2023/10/12 15:07:12;;;;;;;14.37;8.27;;;;;;;;;;5056044;28;20512;-68
2023/10/12 15:09:37;;;;;;;13.77;8.60;;;;;;;;;;5056627;28;20055;-69
2023/10/12 15:12:05;;;;;;;13.47;8.83;;;;;;;;;;5056616;28;20049;-69
2023/10/12 15:14:31;;;;;;;13.05;8.55;;;;;;;;;;5056504;28;20021;-69
2023/10/12 15:16:56;;;;;;;12.65;8.55;;;;;;;;;;5056629;28;20098;-69
2023/10/12 15:19:21;;;;;;;13.30;8.82;;;;;;;;;;5038310;28;20017;-68
2023/10/12 15:21:48;;;;;;;11.50;8.80;;;;;;;;;;5056567;28;20051;-69
2023/10/12 15:24:14;;;;;;;13.88;9.30;;;;;;;;;;5038579;28;20399;-69
2023/10/12 15:26:40;;;;;;;13.63;10.13;;;;;;;;;;5038538;28;20413;-69
2023/10/12 15:29:08;;;;;;;16.10;9.82;;;;;;;;;;5056439;28;20009;-69
2023/10/12 15:31:33;;;;;;;13.65;9.77;;;;;;;;;;5055883;28;20472;-69
2023/10/12 15:33:59;;;;;;;15.50;10.75;;;;;;;;;;5056097;28;20151;-69
2023/10/12 15:36:25;;;;;;;14.20;9.93;;;;;;;;;;5055485;28;20028;-69
2023/10/12 15:38:51;;;;;;;16.40;10.40;;;;;;;;;;5038382;28;20024;-68
2023/10/12 15:41:17;;;;;;;14.45;10.52;;;;;;;;;;5037827;28;20021;-69
2023/10/12 15:43:42;;;;;;;16.47;11.10;;;;;;;;;;5056020;28;20017;-69
2023/10/12 15:46:11;;;;;;;16.00;10.57;;;;;;;;;;5055692;28;20260;-72
2023/10/12 15:48:36;;;;;;;15.38;10.68;;;;;;;;;;5055639;28;20263;-69
2023/10/12 15:51:01;;;;;;;18.23;11.50;;;;;;;;;;5037854;28;20036;-68
2023/10/12 15:53:27;;;;;;;15.27;10.82;;;;;;;;;;5055832;28;20029;-67
2023/10/12 15:55:52;;;;;;;17.80;11.77;;;;;;;;;;5038146;28;20108;-67
2023/10/12 15:58:17;;;;;;;23.10;12.02;;;;;;;;;;5038167;28;20016;-68
2023/10/12 16:00:43;;;;;;;18.83;12.13;;;;;;;;;;5037822;28;20029;-67
2023/10/12 16:03:08;;;;;;;17.60;11.67;;;;;;;;;;5055712;28;20460;-68
2023/10/12 16:05:34;;;;;;;18.02;12.25;;;;;;;;;;5055669;28;20372;-68
2023/10/12 16:08:01;;;;;;;21.08;12.73;;;;;;;;;;5055849;28;20104;-68
2023/10/12 16:10:29;;;;;;;23.27;13.05;;;;;;;;;;5037774;28;20028;-68
2023/10/12 16:12:55;;;;;;;21.60;12.35;;;;;;;;;;5055300;28;20065;-69
2023/10/12 16:15:20;;;;;;;20.75;12.70;;;;;;;;;;5055498;28;20075;-68
2023/10/12 16:17:48;;;;;;;22.75;13.45;;;;;;;;;;5055325;28;20017;-68
2023/10/12 16:20:14;;;;;;;20.92;12.52;;;;;;;;;;5037821;28;20435;-68
2023/10/12 16:22:42;;;;;;;22.05;12.68;;;;;;;;;;5037754;28;20017;-70
2023/10/12 16:25:11;;;;;;;21.40;13.90;;;;;;;;;;5055018;28;20017;-69